Time;durP1;ratioP1;P1;durP2;ratioP2;P2;SDS_P1;SDS_P2;PMS_P1;PMS_P2;Temp;Humidity;BMP_temperature;BMP_pressure;BME280_temperature;BME280_humidity;BME280_pressure;Samples;Min_cycle;Max_cycle;Signal;HPM_P1;HPM_P2
2023/01/20 00:00:37;;;;;;;0.30;0.30;;;9.80;60.60;;;;;;4901284;29;20055;-88
2023/01/20 00:03:03;;;;;;;0.30;0.30;;;10.00;60.70;;;;;;4903134;29;20056;-88
2023/01/20 00:05:33;;;;;;;0.30;0.30;;;9.90;60.50;;;;;;4895412;29;20024;-94
2023/01/20 00:07:59;;;;;;;0.30;0.30;;;9.70;61.60;;;;;;4902588;29;20434;-87
2023/01/20 00:10:24;;;;;;;0.30;0.30;;;9.70;60.80;;;;;;4901884;29;20038;-93
2023/01/20 00:12:50;;;;;;;0.20;0.20;;;9.70;61.40;;;;;;4902594;29;20039;-95
2023/01/20 00:15:16;;;;;;;0.30;0.30;;;9.60;61.10;;;;;;4901404;29;20039;-87
2023/01/20 00:17:41;;;;;;;0.28;0.28;;;9.70;60.70;;;;;;4901276;29;20040;-87
2023/01/20 00:20:08;;;;;;;0.30;0.30;;;9.70;60.70;;;;;;4900669;29;20056;-92
2023/01/20 00:22:38;;;;;;;0.30;0.30;;;9.90;60.70;;;;;;4901548;29;20017;-93
2023/01/20 00:25:05;;;;;;;0.30;0.30;;;10.10;60.50;;;;;;4900666;29;20031;-89
2023/01/20 00:27:31;;;;;;;0.20;0.20;;;10.20;59.80;;;;;;4901060;29;20118;-89
2023/01/20 00:29:57;;;;;;;0.30;0.30;;;10.20;60.00;;;;;;4900842;29;20169;-92
2023/01/20 00:32:22;;;;;;;0.20;0.20;;;10.30;59.60;;;;;;4900668;29;20028;-87
2023/01/20 00:34:48;;;;;;;0.22;0.22;;;10.40;59.20;;;;;;4898938;29;20028;-86
2023/01/20 00:37:22;;;;;;;0.40;0.40;;;10.30;60.00;;;;;;4884371;29;20087;-90
2023/01/20 00:39:47;;;;;;;0.30;0.30;;;10.10;59.80;;;;;;4901289;29;20040;-86
2023/01/20 00:42:13;;;;;;;0.30;0.30;;;9.60;61.20;;;;;;4900815;29;20020;-88
2023/01/20 00:44:39;;;;;;;0.30;0.30;;;9.60;61.60;;;;;;4900263;29;20035;-87
2023/01/20 00:47:06;;;;;;;0.40;0.40;;;9.60;61.10;;;;;;4901168;29;20024;-86
2023/01/20 00:49:31;;;;;;;0.30;0.30;;;9.60;61.50;;;;;;4900460;29;20032;-88
2023/01/20 00:51:57;;;;;;;0.30;0.30;;;9.80;61.40;;;;;;4896987;29;20027;-86
2023/01/20 00:54:23;;;;;;;0.30;0.30;;;9.80;60.40;;;;;;4896343;29;20464;-87
2023/01/20 00:56:48;;;;;;;0.30;0.30;;;10.00;60.50;;;;;;4900716;29;20024;-87
2023/01/20 00:59:14;;;;;;;0.28;0.28;;;10.20;59.80;;;;;;4900946;29;20036;-90
2023/01/20 01:01:40;;;;;;;0.30;0.30;;;10.20;60.00;;;;;;4898951;29;20043;-92
2023/01/20 01:04:05;;;;;;;0.20;0.20;;;9.80;59.60;;;;;;4901401;29;20024;-93
2023/01/20 01:06:31;;;;;;;0.20;0.20;;;9.60;60.80;;;;;;4897360;29;20460;-89
2023/01/20 01:08:57;;;;;;;0.30;0.30;;;9.70;60.50;;;;;;4899971;29;20039;-93
2023/01/20 01:11:22;;;;;;;0.38;0.38;;;9.70;60.80;;;;;;4900902;29;20043;-90
2023/01/20 01:13:48;;;;;;;0.30;0.30;;;9.70;60.20;;;;;;4901299;29;20028;-87
2023/01/20 01:16:17;;;;;;;0.30;0.30;;;9.30;60.90;;;;;;4900443;29;20559;-89
2023/01/20 01:18:43;;;;;;;0.20;0.20;;;9.50;61.20;;;;;;4899130;29;20044;-88
2023/01/20 01:21:11;;;;;;;0.40;0.40;;;9.50;61.00;;;;;;4899362;29;20158;-89
2023/01/20 01:23:37;;;;;;;0.30;0.30;;;9.50;60.70;;;;;;4901004;29;20031;-89
2023/01/20 01:26:04;;;;;;;0.30;0.30;;;9.80;60.60;;;;;;4899316;29;20024;-87
2023/01/20 01:28:30;;;;;;;0.30;0.30;;;9.80;60.20;;;;;;4882362;29;20425;-88
2023/01/20 01:31:00;;;;;;;0.20;0.20;;;10.00;60.30;;;;;;4896237;29;20161;-90
2023/01/20 01:33:26;;;;;;;0.30;0.30;;;10.10;60.00;;;;;;4900405;29;20127;-88
2023/01/20 01:36:02;;;;;;;0.40;0.40;;;10.20;59.50;;;;;;4901426;29;20357;-88
2023/01/20 01:38:28;;;;;;;0.30;0.30;;;10.20;59.30;;;;;;4900365;29;20024;-94
2023/01/20 01:40:54;;;;;;;0.28;0.28;;;10.10;59.40;;;;;;4899323;29;20035;-89
2023/01/20 01:43:29;;;;;;;0.38;0.38;;;10.10;59.50;;;;;;4900039;29;20364;-89
2023/01/20 01:45:55;;;;;;;0.20;0.20;;;10.10;59.70;;;;;;4897170;29;20047;-93
2023/01/20 01:48:44;;;;;;;0.30;0.30;;;10.10;59.90;;;;;;4900907;29;20021;-94
2023/01/20 01:51:16;;;;;;;0.20;0.20;;;10.50;59.30;;;;;;4900643;29;20028;-88
2023/01/20 01:53:47;;;;;;;0.25;0.25;;;10.60;58.90;;;;;;4900622;29;20434;-88
2023/01/20 01:56:14;;;;;;;0.30;0.30;;;10.60;58.60;;;;;;4901182;29;20024;-87
2023/01/20 01:58:45;;;;;;;0.28;0.28;;;10.70;58.50;;;;;;4900970;29;20424;-90
2023/01/20 02:01:11;;;;;;;0.20;0.20;;;10.90;58.60;;;;;;4901242;29;20020;-88
2023/01/20 02:04:00;;;;;;;0.30;0.30;;;10.70;58.70;;;;;;4901517;29;20083;-90
2023/01/20 02:06:31;;;;;;;0.30;0.30;;;10.60;58.40;;;;;;4900715;29;20127;-89
2023/01/20 02:09:00;;;;;;;0.30;0.30;;;10.70;58.20;;;;;;4900527;29;20021;-88
2023/01/20 02:11:28;;;;;;;0.30;0.30;;;10.50;58.30;;;;;;4900566;29;20020;-90
2023/01/20 02:13:56;;;;;;;0.20;0.20;;;10.50;58.70;;;;;;4901130;29;20030;-93
2023/01/20 02:16:39;;;;;;;0.20;0.20;;;10.40;59.00;;;;;;4897468;29;20107;-90
2023/01/20 02:19:38;;;;;;;0.30;0.30;;;10.60;58.80;;;;;;4881900;29;20096;-90
2023/01/20 02:22:33;;;;;;;0.30;0.30;;;10.60;58.70;;;;;;4893225;29;20028;-90
2023/01/20 02:25:17;;;;;;;0.30;0.30;;;10.70;59.00;;;;;;4899726;29;20029;-88
2023/01/20 02:27:55;;;;;;;0.20;0.20;;;10.70;58.00;;;;;;4899770;29;20024;-93
2023/01/20 02:30:29;;;;;;;0.30;0.30;;;10.60;58.70;;;;;;4902222;29;20489;-88
2023/01/20 02:33:03;;;;;;;0.30;0.30;;;10.10;58.90;;;;;;4904038;29;20031;-89
2023/01/20 02:35:48;;;;;;;0.30;0.30;;;9.80;59.60;;;;;;4886002;29;20024;-89
2023/01/20 02:38:13;;;;;;;0.30;0.30;;;10.00;60.10;;;;;;4878217;29;20067;-93
2023/01/20 02:41:09;;;;;;;0.30;0.30;;;9.90;59.70;;;;;;4899430;29;20130;-92
2023/01/20 02:43:48;;;;;;;0.30;0.30;;;10.00;59.70;;;;;;4902989;29;20024;-89
2023/01/20 02:46:36;;;;;;;0.30;0.30;;;10.30;59.40;;;;;;4903330;29;20084;-93
2023/01/20 02:49:27;;;;;;;0.30;0.30;;;10.60;58.80;;;;;;4891066;29;20020;-92
2023/01/20 02:52:02;;;;;;;0.32;0.32;;;10.80;58.40;;;;;;4897061;29;20025;-89
2023/01/20 02:54:32;;;;;;;0.30;0.30;;;10.90;57.60;;;;;;4902561;29;20055;-93
2023/01/20 02:57:01;;;;;;;0.30;0.30;;;10.90;57.90;;;;;;4897410;29;20020;-88
2023/01/20 02:59:32;;;;;;;0.30;0.30;;;10.60;58.20;;;;;;4903628;29;20044;-90
2023/01/20 03:02:03;;;;;;;0.30;0.30;;;10.30;58.90;;;;;;4894700;29;20036;-86
2023/01/20 03:04:52;;;;;;;0.30;0.30;;;10.30;59.30;;;;;;4903236;29;20031;-88
2023/01/20 03:07:22;;;;;;;0.30;0.30;;;10.40;58.90;;;;;;4902381;29;20468;-88
2023/01/20 03:09:52;;;;;;;0.30;0.30;;;10.40;59.10;;;;;;4898999;29;20024;-88
2023/01/20 03:12:23;;;;;;;0.30;0.30;;;10.50;59.20;;;;;;4893477;29;20550;-87
2023/01/20 03:14:50;;;;;;;0.30;0.30;;;10.20;59.70;;;;;;4903002;29;20110;-88
2023/01/20 03:17:19;;;;;;;0.20;0.20;;;10.00;59.90;;;;;;4902504;29;20071;-89
2023/01/20 03:19:45;;;;;;;0.30;0.30;;;9.80;60.40;;;;;;4903027;29;20039;-92
2023/01/20 03:22:11;;;;;;;0.30;0.30;;;9.80;60.80;;;;;;4902862;29;20024;-89
2023/01/20 03:24:39;;;;;;;0.30;0.30;;;9.60;61.10;;;;;;4902382;29;20035;-88
2023/01/20 03:27:13;;;;;;;0.30;0.30;;;9.60;61.70;;;;;;4903095;29;20063;-89
2023/01/20 03:29:38;;;;;;;0.30;0.30;;;10.00;60.00;;;;;;4902960;29;20028;-89
2023/01/20 03:32:07;;;;;;;0.20;0.20;;;10.10;60.30;;;;;;4902478;29;20415;-90
2023/01/20 03:34:37;;;;;;;0.30;0.30;;;10.40;59.30;;;;;;4903338;29;20024;-90
2023/01/20 03:37:04;;;;;;;0.30;0.30;;;10.70;58.50;;;;;;4903017;29;20087;-89
2023/01/20 03:39:31;;;;;;;0.25;0.25;;;10.70;58.50;;;;;;4900907;29;20397;-90
2023/01/20 03:42:20;;;;;;;0.30;0.30;;;10.70;58.50;;;;;;4899004;29;20120;-89
2023/01/20 03:45:18;;;;;;;0.30;0.30;;;11.00;58.00;;;;;;4903149;29;20035;-92
2023/01/20 03:48:02;;;;;;;0.30;0.30;;;11.10;57.70;;;;;;4887576;29;20087;-90
2023/01/20 03:50:52;;;;;;;0.30;0.30;;;11.20;57.80;;;;;;4902108;29;20479;-89
2023/01/20 03:53:50;;;;;;;;;;;11.20;57.40;;;;;;4899580;29;20077;-89
2023/01/20 03:56:32;;;;;;;0.30;0.30;;;10.80;58.10;;;;;;4800317;29;20267;-89
2023/01/20 03:59:01;;;;;;;0.40;0.40;;;10.10;59.70;;;;;;4808364;29;20047;-89
2023/01/20 04:01:35;;;;;;;0.40;0.40;;;10.10;59.80;;;;;;4818702;29;20027;-90
2023/01/20 04:04:04;;;;;;;0.30;0.30;;;10.30;59.50;;;;;;4809166;29;20083;-92
2023/01/20 04:06:33;;;;;;;0.30;0.30;;;10.20;59.90;;;;;;4808960;29;20034;-93
2023/01/20 04:09:04;;;;;;;0.20;0.20;;;10.30;59.10;;;;;;4809209;29;20072;-92
2023/01/20 04:11:30;;;;;;;0.30;0.30;;;9.80;60.30;;;;;;4810409;29;20111;-89
2023/01/20 04:13:56;;;;;;;0.30;0.30;;;9.70;61.20;;;;;;4802355;29;20117;-90
2023/01/20 04:16:26;;;;;;;0.30;0.30;;;9.60;61.10;;;;;;4798992;29;20034;-90
2023/01/20 04:18:52;;;;;;;0.30;0.30;;;9.80;61.20;;;;;;4799644;29;20541;-90
2023/01/20 04:21:32;;;;;;;0.30;0.30;;;10.00;59.90;;;;;;4807069;29;20026;-90
2023/01/20 04:24:09;;;;;;;0.38;0.38;;;9.90;60.70;;;;;;4808585;29;20042;-90
2023/01/20 04:26:35;;;;;;;0.30;0.30;;;10.00;61.00;;;;;;4808475;29;20099;-89
2023/01/20 04:29:07;;;;;;;0.38;0.38;;;10.30;59.90;;;;;;4809146;29;20026;-90
2023/01/20 04:31:34;;;;;;;0.28;0.28;;;10.60;59.30;;;;;;4836476;29;20497;-90
2023/01/20 04:34:00;;;;;;;0.35;0.35;;;10.70;59.00;;;;;;4899323;29;20115;-91
2023/01/20 04:36:26;;;;;;;0.20;0.20;;;10.60;58.70;;;;;;4901518;29;20095;-90
2023/01/20 04:38:52;;;;;;;0.30;0.30;;;10.60;59.40;;;;;;4901105;29;20123;-90
2023/01/20 04:41:17;;;;;;;0.30;0.30;;;10.70;59.40;;;;;;4901389;29;20049;-90
2023/01/20 04:43:45;;;;;;;0.30;0.30;;;10.90;58.90;;;;;;4889296;29;20099;-90
2023/01/20 04:46:15;;;;;;;0.30;0.30;;;11.20;58.30;;;;;;4902483;29;20192;-90
2023/01/20 04:48:42;;;;;;;0.30;0.30;;;11.20;57.80;;;;;;4900302;29;20020;-90
2023/01/20 04:51:09;;;;;;;0.30;0.30;;;11.30;57.60;;;;;;4901467;29;20032;-90
2023/01/20 04:53:34;;;;;;;0.30;0.30;;;11.40;57.50;;;;;;4900755;29;20072;-90
2023/01/20 04:56:00;;;;;;;0.20;0.20;;;11.30;57.80;;;;;;4901098;29;20120;-89
2023/01/20 04:58:26;;;;;;;0.38;0.38;;;11.30;58.10;;;;;;4899582;29;20028;-90
2023/01/20 05:00:52;;;;;;;0.30;0.30;;;11.40;57.60;;;;;;4897363;29;20045;-88
2023/01/20 05:03:20;;;;;;;0.20;0.20;;;11.50;57.10;;;;;;4897160;29;20052;-89
2023/01/20 05:05:55;;;;;;;0.30;0.30;;;11.50;56.80;;;;;;4899918;29;20020;-89
2023/01/20 05:08:20;;;;;;;0.30;0.30;;;11.10;58.10;;;;;;4900851;29;20028;-89
2023/01/20 05:10:52;;;;;;;0.30;0.30;;;11.00;57.70;;;;;;4900838;29;20035;-89
2023/01/20 05:13:18;;;;;;;0.40;0.40;;;11.00;58.30;;;;;;4900576;29;20031;-94
2023/01/20 05:15:44;;;;;;;0.30;0.30;;;11.20;58.00;;;;;;4900276;29;20019;-94
2023/01/20 05:18:10;;;;;;;0.32;0.32;;;11.20;58.00;;;;;;4897648;29;20055;-90
2023/01/20 05:20:35;;;;;;;0.30;0.30;;;11.10;58.10;;;;;;4897636;29;20032;-89
2023/01/20 05:23:01;;;;;;;0.30;0.30;;;10.90;58.70;;;;;;4887239;29;20143;-93
2023/01/20 05:25:27;;;;;;;0.30;0.30;;;10.70;58.60;;;;;;4882543;29;20032;-93
2023/01/20 05:27:53;;;;;;;0.30;0.30;;;10.60;59.10;;;;;;4882324;29;20033;-89
2023/01/20 05:30:19;;;;;;;0.30;0.30;;;10.70;59.20;;;;;;4887290;29;20020;-94
2023/01/20 05:32:48;;;;;;;0.25;0.25;;;10.60;59.40;;;;;;4896368;29;20024;-90
2023/01/20 05:35:13;;;;;;;0.30;0.30;;;10.80;58.90;;;;;;4888763;29;20032;-90
2023/01/20 05:37:39;;;;;;;0.30;0.30;;;10.40;59.80;;;;;;4897990;29;20123;-95
2023/01/20 05:40:05;;;;;;;0.30;0.30;;;10.60;59.70;;;;;;4875792;29;20045;-95
2023/01/20 05:42:32;;;;;;;0.28;0.28;;;10.50;59.80;;;;;;4889905;29;20124;-93
2023/01/20 05:44:57;;;;;;;0.30;0.30;;;10.60;59.70;;;;;;4888352;29;20029;-92
2023/01/20 05:47:23;;;;;;;0.20;0.20;;;10.90;58.90;;;;;;4910541;29;20025;-93
2023/01/20 05:49:49;;;;;;;0.30;0.30;;;11.20;58.50;;;;;;4897719;29;20104;-87
2023/01/20 05:52:15;;;;;;;0.38;0.38;;;11.30;57.80;;;;;;4900880;29;20486;-91
2023/01/20 05:54:40;;;;;;;0.20;0.20;;;11.50;57.50;;;;;;4881888;29;20033;-95
2023/01/20 05:57:06;;;;;;;0.30;0.30;;;11.40;57.50;;;;;;4896603;29;20116;-93
2023/01/20 05:59:32;;;;;;;0.20;0.20;;;11.30;58.00;;;;;;4893716;29;20505;-91
2023/01/20 06:01:57;;;;;;;0.30;0.30;;;11.40;57.80;;;;;;4884227;29;20029;-88
2023/01/20 06:04:23;;;;;;;0.30;0.30;;;11.40;57.20;;;;;;4883970;29;20029;-91
2023/01/20 06:06:49;;;;;;;0.30;0.30;;;11.30;57.70;;;;;;4867090;29;20029;-88
2023/01/20 06:09:14;;;;;;;0.30;0.30;;;11.20;57.90;;;;;;4876710;29;20032;-88
2023/01/20 06:11:40;;;;;;;0.30;0.30;;;11.10;58.00;;;;;;4896677;29;20072;-88
2023/01/20 06:14:06;;;;;;;0.20;0.20;;;10.90;58.50;;;;;;4870425;29;20495;-88
2023/01/20 06:16:32;;;;;;;0.30;0.30;;;10.90;58.60;;;;;;4899240;29;20060;-94
2023/01/20 06:18:57;;;;;;;0.30;0.30;;;11.20;58.50;;;;;;4883437;29;20052;-88
2023/01/20 06:21:23;;;;;;;0.30;0.30;;;11.40;58.00;;;;;;4874830;29;20116;-89
2023/01/20 06:23:50;;;;;;;0.20;0.20;;;11.40;58.00;;;;;;4873574;29;20032;-87
2023/01/20 06:26:16;;;;;;;0.20;0.20;;;11.40;57.90;;;;;;4896632;29;20040;-91
2023/01/20 06:28:42;;;;;;;0.30;0.30;;;11.50;57.70;;;;;;4885982;29;20028;-86
2023/01/20 06:31:11;;;;;;;0.30;0.30;;;11.60;57.80;;;;;;4884634;29;20089;-91
2023/01/20 06:33:37;;;;;;;0.22;0.22;;;11.70;57.60;;;;;;4884906;29;20032;-92
2023/01/20 06:36:04;;;;;;;0.20;0.20;;;11.60;57.40;;;;;;4883822;29;20041;-91
2023/01/20 06:38:32;;;;;;;0.20;0.20;;;11.40;57.70;;;;;;4874126;29;20108;-87
2023/01/20 06:41:03;;;;;;;0.20;0.20;;;11.20;58.50;;;;;;4884265;29;20036;-84
2023/01/20 06:43:30;;;;;;;0.28;0.28;;;10.90;58.00;;;;;;4887167;29;20448;-94
2023/01/20 06:46:05;;;;;;;0.30;0.30;;;10.60;59.60;;;;;;4884464;29;20093;-86
2023/01/20 06:48:32;;;;;;;0.30;0.30;;;10.40;60.00;;;;;;4880748;29;20029;-86
2023/01/20 06:51:06;;;;;;;0.25;0.25;;;10.40;60.40;;;;;;4866236;29;20025;-86
2023/01/20 06:53:32;;;;;;;0.30;0.30;;;10.60;59.70;;;;;;4862887;29;20438;-85
2023/01/20 06:55:59;;;;;;;0.30;0.30;;;10.60;58.90;;;;;;4864302;29;20582;-95
2023/01/20 06:58:27;;;;;;;0.20;0.20;;;10.10;59.90;;;;;;4865444;29;20033;-91
2023/01/20 07:00:55;;;;;;;0.30;0.30;;;9.90;60.70;;;;;;4874874;29;20035;-93
2023/01/20 07:03:21;;;;;;;0.30;0.30;;;9.80;60.90;;;;;;4867372;29;20152;-93
2023/01/20 07:05:59;;;;;;;0.30;0.30;;;10.00;60.60;;;;;;4866069;29;20033;-93
2023/01/20 07:08:25;;;;;;;0.30;0.30;;;10.20;60.80;;;;;;4865760;29;20040;-92
2023/01/20 07:10:50;;;;;;;0.30;0.30;;;10.20;60.40;;;;;;4874047;29;20033;-89
2023/01/20 07:13:16;;;;;;;0.30;0.30;;;10.30;60.00;;;;;;4883973;29;20036;-86
2023/01/20 07:15:42;;;;;;;0.28;0.28;;;10.40;60.10;;;;;;4883262;29;20040;-85
2023/01/20 07:18:08;;;;;;;0.20;0.20;;;10.30;59.70;;;;;;4898760;29;20062;-93
2023/01/20 07:20:33;;;;;;;0.30;0.30;;;10.40;59.90;;;;;;4903040;29;20037;-91
2023/01/20 07:23:00;;;;;;;0.20;0.20;;;10.50;59.70;;;;;;4903206;29;20127;-85
2023/01/20 07:25:26;;;;;;;0.30;0.30;;;10.60;59.30;;;;;;4891686;29;20384;-90
2023/01/20 07:27:52;;;;;;;0.30;0.30;;;10.60;59.30;;;;;;4551119;29;10000219;-92
2023/01/20 07:30:18;;;;;;;0.32;0.32;;;10.60;59.40;;;;;;4897589;29;20073;-85
2023/01/20 07:32:43;;;;;;;0.30;0.30;;;10.30;59.60;;;;;;4903042;29;20031;-86
2023/01/20 07:35:09;;;;;;;0.20;0.20;;;10.30;59.90;;;;;;4902732;29;20028;-95
2023/01/20 07:37:35;;;;;;;0.30;0.30;;;10.30;60.40;;;;;;4902085;29;20040;-90
2023/01/20 07:40:01;;;;;;;0.22;0.22;;;10.40;60.30;;;;;;4892569;29;20059;-85
2023/01/20 07:42:27;;;;;;;0.28;0.28;;;10.60;59.90;;;;;;4897776;29;20100;-87
2023/01/20 07:44:52;;;;;;;0.30;0.30;;;10.60;59.50;;;;;;4901359;29;20034;-88
2023/01/20 07:47:18;;;;;;;0.30;0.30;;;10.60;59.40;;;;;;4891080;29;20043;-85
2023/01/20 07:49:44;;;;;;;0.30;0.30;;;10.40;59.50;;;;;;4901801;29;20029;-86
2023/01/20 07:52:09;;;;;;;0.30;0.30;;;10.60;59.50;;;;;;4885654;29;20041;-86
2023/01/20 07:54:35;;;;;;;0.30;0.30;;;10.70;59.10;;;;;;4897471;29;20119;-91
2023/01/20 07:57:01;;;;;;;0.30;0.30;;;10.50;59.30;;;;;;4902014;29;20048;-94
2023/01/20 07:59:28;;;;;;;0.30;0.30;;;10.60;59.20;;;;;;4902240;29;20040;-94
2023/01/20 08:01:54;;;;;;;0.20;0.20;;;10.50;59.40;;;;;;4903591;29;20076;-95
2023/01/20 08:04:19;;;;;;;0.30;0.30;;;10.60;59.40;;;;;;4905088;29;20028;-94
2023/01/20 08:06:45;;;;;;;0.30;0.30;;;10.70;58.90;;;;;;4902859;29;20444;-91
2023/01/20 08:09:13;;;;;;;0.30;0.30;;;10.50;59.30;;;;;;4903178;29;20039;-96
2023/01/20 08:11:39;;;;;;;0.32;0.32;;;10.50;59.60;;;;;;4903910;29;20064;-95
2023/01/20 08:14:05;;;;;;;0.30;0.30;;;10.50;59.30;;;;;;4902769;29;20024;-95
2023/01/20 08:16:31;;;;;;;0.25;0.25;;;10.70;59.50;;;;;;4903011;29;20527;-92
2023/01/20 08:18:56;;;;;;;0.30;0.30;;;10.80;58.50;;;;;;4902959;29;20036;-94
2023/01/20 08:21:28;;;;;;;0.30;0.30;;;10.60;59.70;;;;;;4902742;29;20035;-95
2023/01/20 08:23:55;;;;;;;0.30;0.30;;;10.70;59.40;;;;;;4902419;29;20025;-96
2023/01/20 08:26:23;;;;;;;0.30;0.30;;;10.80;59.40;;;;;;4901710;29;20036;-93
2023/01/20 08:28:50;;;;;;;0.30;0.30;;;10.50;59.30;;;;;;4903355;29;20052;-95
2023/01/20 08:31:18;;;;;;;0.25;0.25;;;10.60;59.50;;;;;;4904835;29;20028;-94
2023/01/20 08:33:44;;;;;;;0.30;0.30;;;10.60;60.00;;;;;;4903827;29;20036;-91
2023/01/20 08:36:12;;;;;;;0.30;0.30;;;10.80;59.60;;;;;;4902978;29;20030;-95
2023/01/20 08:38:39;;;;;;;0.30;0.30;;;11.10;58.90;;;;;;4559479;29;9999742;-94
2023/01/20 08:41:11;;;;;;;0.40;0.40;;;11.00;59.00;;;;;;4898895;29;20039;-92
2023/01/20 08:43:37;;;;;;;0.30;0.30;;;10.90;59.10;;;;;;4898352;29;20028;-87
2023/01/20 08:46:13;;;;;;;0.25;0.25;;;11.00;59.20;;;;;;4901596;29;20028;-88
2023/01/20 08:48:41;;;;;;;0.30;0.30;;;11.10;59.00;;;;;;4901154;29;20119;-88
2023/01/20 08:51:10;;;;;;;0.30;0.30;;;11.00;59.00;;;;;;4901445;29;20047;-89
2023/01/20 08:53:36;;;;;;;0.20;0.20;;;10.90;59.50;;;;;;4901106;29;20020;-88
2023/01/20 08:56:03;;;;;;;0.30;0.30;;;11.00;59.20;;;;;;4901213;29;20039;-88
2023/01/20 08:58:29;;;;;;;0.28;0.28;;;11.20;59.30;;;;;;4900046;29;20017;-87
2023/01/20 09:00:55;;;;;;;0.30;0.30;;;11.40;58.50;;;;;;4902630;29;20032;-88
2023/01/20 09:03:21;;;;;;;0.30;0.30;;;11.50;58.50;;;;;;4901045;29;20027;-89
2023/01/20 09:05:47;;;;;;;0.30;0.30;;;11.50;58.20;;;;;;4901174;29;20122;-88
2023/01/20 09:08:13;;;;;;;0.20;0.20;;;11.30;58.50;;;;;;4901358;29;20030;-88
2023/01/20 09:10:39;;;;;;;0.32;0.32;;;11.20;59.30;;;;;;4900987;29;20028;-88
2023/01/20 09:13:05;;;;;;;0.30;0.30;;;11.10;59.10;;;;;;4901789;29;20395;-88
2023/01/20 09:15:30;;;;;;;0.30;0.30;;;11.10;59.10;;;;;;4901303;29;20450;-87
2023/01/20 09:17:57;;;;;;;0.25;0.25;;;11.20;58.90;;;;;;4902188;29;20519;-87
2023/01/20 09:20:24;;;;;;;0.30;0.30;;;11.20;58.90;;;;;;4901212;29;20088;-87
2023/01/20 09:22:50;;;;;;;0.35;0.35;;;11.10;58.60;;;;;;4901431;29;20024;-87
2023/01/20 09:25:16;;;;;;;0.20;0.20;;;11.00;59.00;;;;;;4901483;29;20056;-88
2023/01/20 09:27:42;;;;;;;0.30;0.30;;;11.00;59.10;;;;;;4901035;29;20031;-88
2023/01/20 09:30:08;;;;;;;0.30;0.30;;;11.00;59.20;;;;;;4900840;29;20028;-88
2023/01/20 09:32:34;;;;;;;0.30;0.30;;;10.90;59.50;;;;;;4900587;29;20498;-88
2023/01/20 09:34:59;;;;;;;0.30;0.30;;;10.60;60.00;;;;;;4901234;29;20063;-87
2023/01/20 09:46:17;;;;;;;0.30;0.30;;;10.80;59.90;;;;;;4917383;29;20079;-89
2023/01/20 09:54:53;;;;;;;0.30;0.30;;;10.00;61.40;;;;;;4917473;29;20036;-87
2023/01/20 09:57:23;;;;;;;0.43;0.43;;;10.20;61.20;;;;;;4902750;29;20029;-88
2023/01/20 09:59:54;;;;;;;0.30;0.30;;;10.30;61.20;;;;;;4902825;29;20400;-89
2023/01/20 10:02:25;;;;;;;0.30;0.30;;;10.70;60.20;;;;;;4900595;29;20028;-87
2023/01/20 10:04:57;;;;;;;0.30;0.30;;;10.80;60.10;;;;;;4900626;29;20059;-89
2023/01/20 10:07:34;;;;;;;0.30;0.30;;;10.70;59.60;;;;;;4901117;29;20088;-87
2023/01/20 10:10:19;;;;;;;0.35;0.35;;;10.60;60.30;;;;;;4901277;29;20024;-95
2023/01/20 10:12:48;;;;;;;0.30;0.30;;;11.00;59.90;;;;;;4900270;29;20135;-89
2023/01/20 10:15:23;;;;;;;0.30;0.30;;;11.20;59.30;;;;;;4900327;29;20420;-89
2023/01/20 10:18:24;;;;;;;0.30;0.30;;;11.50;59.00;;;;;;4900262;29;20048;-88
2023/01/20 10:21:01;;;;;;;0.30;0.30;;;11.70;58.30;;;;;;4900405;29;20040;-86
2023/01/20 10:23:52;;;;;;;0.40;0.40;;;11.40;58.30;;;;;;4902249;29;20028;-86
2023/01/20 10:26:28;;;;;;;0.20;0.20;;;11.10;59.70;;;;;;4901927;29;20056;-88
2023/01/20 10:29:02;;;;;;;0.30;0.30;;;11.20;60.00;;;;;;4900353;29;20032;-87
2023/01/20 10:31:42;;;;;;;0.30;0.30;;;11.30;59.30;;;;;;4900642;29;20031;-87
2023/01/20 10:34:13;;;;;;;0.40;0.40;;;11.10;59.70;;;;;;4900444;29;20032;-86
2023/01/20 10:36:43;;;;;;;0.30;0.30;;;10.80;60.40;;;;;;4900758;29;20032;-88
2023/01/20 10:39:44;;;;;;;0.30;0.30;;;10.80;60.30;;;;;;4900006;29;20130;-86
2023/01/20 10:42:16;;;;;;;0.30;0.30;;;10.60;60.80;;;;;;4900452;29;20032;-85
2023/01/20 10:44:42;;;;;;;0.30;0.30;;;10.50;61.60;;;;;;4900401;29;20055;-87
2023/01/20 10:47:17;;;;;;;0.25;0.25;;;10.60;61.60;;;;;;4900184;29;20468;-87
2023/01/20 10:50:20;;;;;;;0.30;0.30;;;10.70;61.10;;;;;;4900363;29;20044;-86
2023/01/20 10:53:00;;;;;;;0.30;0.30;;;10.90;60.00;;;;;;4562727;29;10000395;-86
2023/01/20 10:56:52;;;;;;;0.40;0.40;;;11.20;59.20;;;;;;5073060;27;1742324;-87
2023/01/20 10:59:30;;;;;;;0.22;0.22;;;11.30;59.30;;;;;;5093791;28;20032;-86
2023/01/20 11:02:00;;;;;;;0.28;0.28;;;11.60;59.30;;;;;;5113633;28;20098;-86
2023/01/20 11:04:27;;;;;;;0.30;0.30;;;11.80;58.80;;;;;;5093738;28;20028;-87
2023/01/20 11:06:59;;;;;;;0.20;0.20;;;11.90;58.90;;;;;;5093663;28;20024;-88
2023/01/20 11:09:37;;;;;;;0.30;0.30;;;12.00;58.40;;;;;;5093244;28;20035;-90
2023/01/20 11:12:09;;;;;;;0.20;0.20;;;11.80;58.50;;;;;;5093611;28;20024;-88
2023/01/20 11:14:36;;;;;;;0.30;0.30;;;11.80;58.40;;;;;;5093364;28;20028;-91
2023/01/20 11:17:05;;;;;;;0.30;0.30;;;11.90;58.70;;;;;;5092893;28;20049;-90
2023/01/20 11:19:48;;;;;;;0.30;0.30;;;12.00;58.50;;;;;;5093166;28;20024;-83
2023/01/20 11:22:21;;;;;;;0.30;0.30;;;12.20;57.50;;;;;;5092725;28;20110;-90
2023/01/20 11:24:47;;;;;;;0.30;0.30;;;12.00;57.40;;;;;;5093290;28;20030;-85
2023/01/20 11:27:21;;;;;;;0.30;0.30;;;11.80;58.70;;;;;;5093936;28;20055;-91
2023/01/20 11:30:03;;;;;;;0.20;0.20;;;11.90;58.40;;;;;;5092973;28;20482;-90
2023/01/20 11:32:40;;;;;;;0.20;0.20;;;11.90;58.40;;;;;;5093217;28;20024;-90
2023/01/20 11:35:24;;;;;;;0.30;0.30;;;11.80;58.60;;;;;;5093237;28;20028;-88
2023/01/20 11:37:50;;;;;;;0.40;0.40;;;11.50;59.10;;;;;;5093036;28;20370;-88
2023/01/20 11:40:22;;;;;;;0.22;0.22;;;11.20;59.70;;;;;;5092820;28;20024;-89
2023/01/20 11:42:49;;;;;;;0.22;0.22;;;11.20;59.80;;;;;;5094435;28;20047;-90
2023/01/20 11:45:22;;;;;;;0.30;0.30;;;10.90;59.90;;;;;;5093460;28;20030;-87
2023/01/20 11:48:04;;;;;;;0.30;0.30;;;10.70;60.50;;;;;;5083665;28;20034;-90
2023/01/20 11:50:36;;;;;;;0.20;0.20;;;10.80;60.20;;;;;;5072308;28;20391;-87
2023/01/20 11:53:25;;;;;;;0.20;0.20;;;11.00;60.00;;;;;;5072585;28;20425;-91
2023/01/20 11:56:01;;;;;;;0.30;0.30;;;11.10;60.00;;;;;;5071692;28;20430;-88
2023/01/20 11:58:49;;;;;;;0.20;0.20;;;11.00;59.90;;;;;;5072341;28;20475;-89
2023/01/20 12:01:24;;;;;;;0.20;0.20;;;10.90;60.30;;;;;;5072831;28;20028;-89
2023/01/20 12:04:04;;;;;;;0.30;0.30;;;10.90;60.20;;;;;;5072838;28;20031;-87
2023/01/20 12:06:50;;;;;;;0.20;0.20;;;10.90;60.30;;;;;;5068374;28;20371;-88
2023/01/20 12:09:21;;;;;;;0.20;0.20;;;10.90;60.30;;;;;;5060022;28;20059;-87
2023/01/20 12:11:58;;;;;;;;;;;11.10;59.50;;;;;;5059685;28;20047;-88
2023/01/20 12:14:52;;;;;;;0.28;0.28;;;11.10;59.30;;;;;;5058962;28;19966;-90
2023/01/20 12:17:33;;;;;;;0.30;0.30;;;11.00;59.70;;;;;;4959572;28;20039;-88
2023/01/20 12:20:05;;;;;;;0.20;0.20;;;10.80;60.20;;;;;;4961369;28;20035;-89
2023/01/20 12:22:37;;;;;;;0.40;0.40;;;10.80;60.20;;;;;;4959219;28;20034;-89
2023/01/20 12:25:15;;;;;;;0.30;0.30;;;11.00;60.10;;;;;;4960093;28;20026;-89
2023/01/20 12:27:55;;;;;;;0.30;0.30;;;11.30;59.60;;;;;;4960871;28;20077;-88
2023/01/20 12:30:42;;;;;;;0.30;0.30;;;10.80;60.00;;;;;;4961035;28;20042;-88
2023/01/20 12:33:17;;;;;;;0.30;0.30;;;10.40;61.40;;;;;;4959422;28;20022;-88
2023/01/20 12:36:02;;;;;;;0.20;0.20;;;10.40;61.30;;;;;;4960028;28;20043;-90
2023/01/20 12:38:35;;;;;;;0.30;0.30;;;10.40;61.50;;;;;;4959443;28;20030;-88
2023/01/20 12:41:06;;;;;;;0.28;0.28;;;10.60;60.90;;;;;;4958880;28;20087;-89
2023/01/20 12:43:47;;;;;;;0.30;0.30;;;10.30;61.80;;;;;;4960206;28;20557;-88
2023/01/20 12:46:34;;;;;;;0.35;0.35;;;10.50;61.30;;;;;;4959342;28;20084;-89
2023/01/20 12:49:21;;;;;;;0.30;0.30;;;10.50;61.60;;;;;;4975002;28;20121;-88
2023/01/20 12:52:20;;;;;;;0.32;0.32;;;10.60;60.90;;;;;;4958870;28;20030;-88
2023/01/20 12:54:51;;;;;;;0.20;0.20;;;10.50;60.90;;;;;;5027031;28;20037;-87
2023/01/20 12:57:50;;;;;;;0.30;0.30;;;10.40;61.50;;;;;;5058435;28;20040;-88
2023/01/20 13:00:38;;;;;;;0.30;0.30;;;10.30;61.60;;;;;;5058985;28;20107;-86
2023/01/20 13:03:22;;;;;;;0.25;0.25;;;10.30;61.60;;;;;;5056981;28;20115;-90
2023/01/20 13:06:09;;;;;;;0.30;0.30;;;10.10;62.50;;;;;;5057872;28;20055;-89
2023/01/20 13:09:12;;;;;;;0.28;0.28;;;10.30;61.90;;;;;;5057360;28;20032;-89
2023/01/20 13:12:05;;;;;;;0.28;0.28;;;10.40;61.20;;;;;;5057859;28;20033;-86
2023/01/20 13:14:46;;;;;;;0.22;0.22;;;10.30;61.70;;;;;;5057798;28;20059;-88
2023/01/20 13:17:34;;;;;;;0.40;0.40;;;10.20;61.80;;;;;;5058686;28;20203;-88
2023/01/20 13:20:04;;;;;;;0.30;0.30;;;10.20;62.30;;;;;;5059027;28;20170;-89
2023/01/20 13:22:30;;;;;;;0.28;0.28;;;10.50;61.80;;;;;;5057710;28;20106;-87
2023/01/20 13:24:58;;;;;;;0.20;0.20;;;10.70;61.50;;;;;;5059462;28;20035;-89